createdAt,value
2022-10-01T00:01:25.572Z,10.30
2022-10-01T00:03:53.246Z,10.30
2022-10-01T00:06:21.495Z,10.30
2022-10-01T00:08:50.716Z,10.30
2022-10-01T00:11:23.804Z,10.30
2022-10-01T00:13:52.219Z,10.30
2022-10-01T00:16:22.073Z,10.30
2022-10-01T00:18:49.823Z,10.30
2022-10-01T00:21:28.073Z,10.30
2022-10-01T00:24:06.042Z,10.30
2022-10-01T00:26:39.630Z,10.30
2022-10-01T00:29:14.798Z,10.40
2022-10-01T00:31:42.536Z,10.30
2022-10-01T00:34:12.746Z,10.30
2022-10-01T00:36:40.042Z,10.30
2022-10-01T00:39:07.114Z,10.30
2022-10-01T00:41:35.427Z,10.30
2022-10-01T00:44:24.348Z,10.30
2022-10-01T00:46:52.701Z,10.20
2022-10-01T00:49:25.162Z,10.30
2022-10-01T00:51:59.325Z,10.20
2022-10-01T00:54:34.845Z,10.20
2022-10-01T00:57:04.203Z,10.20
2022-10-01T00:59:31.961Z,10.30
2022-10-01T01:01:59.579Z,10.30
2022-10-01T01:04:28.004Z,10.20
2022-10-01T01:07:02.180Z,10.30
2022-10-01T01:09:35.385Z,10.30
2022-10-01T01:12:05.630Z,10.30
2022-10-01T01:15:00.861Z,10.30
2022-10-01T01:17:40.578Z,10.30
2022-10-01T01:20:42.847Z,10.30
2022-10-01T01:23:18.884Z,10.30
2022-10-01T01:25:57.950Z,10.30
2022-10-01T01:28:32.484Z,10.30
2022-10-01T01:31:05.949Z,10.30
2022-10-01T01:33:37.562Z,10.30
2022-10-01T01:36:15.881Z,10.20
2022-10-01T01:38:51.864Z,10.20
2022-10-01T01:41:20.629Z,10.20
2022-10-01T01:43:51.523Z,10.20
2022-10-01T01:46:20.214Z,10.20
2022-10-01T01:48:51.270Z,10.20
2022-10-01T01:51:28.076Z,10.20
2022-10-01T01:53:55.432Z,10.20
2022-10-01T01:56:22.903Z,10.20
2022-10-01T01:58:51.019Z,10.20
2022-10-01T02:01:33.085Z,10.20
2022-10-01T02:04:05.157Z,10.20
2022-10-01T02:07:01.395Z,10.10
2022-10-01T02:09:51.753Z,10.10
2022-10-01T02:12:46.704Z,10.10
2022-10-01T02:15:25.703Z,10.10
2022-10-01T02:18:02.512Z,10.10
2022-10-01T02:20:54.394Z,10.00
2022-10-01T02:23:33.732Z,10.00
2022-10-01T02:26:08.599Z,10.00
2022-10-01T02:28:39.583Z,10.00
2022-10-01T02:31:11.238Z,10.00
2022-10-01T02:33:40.175Z,10.00
2022-10-01T02:36:10.045Z,10.00
2022-10-01T02:38:40.779Z,10.00
2022-10-01T02:41:11.804Z,10.00
2022-10-01T02:43:55.585Z,10.00
2022-10-01T02:46:35.803Z,10.00
2022-10-01T02:49:04.552Z,10.00
2022-10-01T02:51:56.745Z,10.00
2022-10-01T02:54:50.220Z,10.00
2022-10-01T02:57:24.639Z,10.00
2022-10-01T02:59:52.882Z,10.00
2022-10-01T03:02:20.674Z,10.00
2022-10-01T03:04:48.717Z,9.90
2022-10-01T03:07:16.998Z,10.00
2022-10-01T03:09:44.171Z,10.00
2022-10-01T03:12:11.114Z,10.00
2022-10-01T03:14:41.248Z,10.00
2022-10-01T03:17:08.418Z,10.00
2022-10-01T03:19:38.170Z,10.00
2022-10-01T03:22:05.406Z,10.00
2022-10-01T03:24:32.663Z,10.00
2022-10-01T03:27:00.165Z,10.00
2022-10-01T03:29:27.855Z,10.00
2022-10-01T03:31:55.668Z,10.10
2022-10-01T03:34:23.567Z,10.00
2022-10-01T03:36:52.601Z,10.00
2022-10-01T03:39:20.194Z,9.90
2022-10-01T03:41:47.454Z,9.90
2022-10-01T03:44:14.564Z,9.90
2022-10-01T03:46:42.003Z,9.90
2022-10-01T03:49:09.156Z,9.80
2022-10-01T03:51:37.501Z,9.80
2022-10-01T03:54:06.932Z,9.80
2022-10-01T03:56:35.317Z,9.80
2022-10-01T03:59:02.641Z,9.80
2022-10-01T04:01:31.177Z,9.80
2022-10-01T04:03:58.900Z,9.80
2022-10-01T04:06:25.964Z,9.80
2022-10-01T04:08:52.838Z,9.80
2022-10-01T04:11:20.060Z,9.80
2022-10-01T04:13:47.410Z,9.80
2022-10-01T04:16:15.838Z,9.80
2022-10-01T04:18:43.180Z,9.80
2022-10-01T04:21:10.361Z,9.80
2022-10-01T04:23:37.293Z,9.80
2022-10-01T04:26:04.669Z,9.80
2022-10-01T04:28:32.460Z,9.80
2022-10-01T04:31:18.602Z,9.80
2022-10-01T04:33:46.118Z,9.80
2022-10-01T04:36:13.195Z,9.80
2022-10-01T04:38:40.237Z,9.80
2022-10-01T04:41:07.415Z,9.80
2022-10-01T04:43:34.369Z,9.80
2022-10-01T04:46:01.438Z,9.80
2022-10-01T04:48:28.394Z,9.80
2022-10-01T04:50:55.359Z,9.90
2022-10-01T04:53:22.353Z,9.90
2022-10-01T04:55:49.512Z,9.90
2022-10-01T04:58:16.497Z,9.90
2022-10-01T05:00:43.603Z,9.90
2022-10-01T05:03:10.960Z,9.90
2022-10-01T05:05:39.044Z,10.00
2022-10-01T05:08:06.199Z,10.00
2022-10-01T05:10:33.180Z,10.00
2022-10-01T05:13:02.452Z,10.00
2022-10-01T05:15:30.573Z,10.00
2022-10-01T05:17:57.907Z,10.00
2022-10-01T05:20:27.140Z,10.00
2022-10-01T05:22:56.585Z,10.10
2022-10-01T05:25:24.159Z,10.00
2022-10-01T05:27:51.715Z,10.10
2022-10-01T05:30:24.499Z,10.10
2022-10-01T05:32:56.776Z,10.10
2022-10-01T05:35:24.353Z,10.10
2022-10-01T05:37:59.411Z,10.10
2022-10-01T05:40:28.873Z,10.10
2022-10-01T05:43:00.341Z,10.20
2022-10-01T05:45:28.972Z,10.10
2022-10-01T05:48:01.169Z,10.10
2022-10-01T05:50:33.967Z,10.10
2022-10-01T05:53:01.982Z,10.20
2022-10-01T05:55:34.801Z,10.20
2022-10-01T05:58:07.247Z,10.10
2022-10-01T06:00:36.091Z,10.20
2022-10-01T06:03:04.349Z,10.20
2022-10-01T06:05:33.715Z,10.20
2022-10-01T06:08:01.125Z,10.30
2022-10-01T06:10:31.149Z,10.20
2022-10-01T06:13:02.241Z,10.30
2022-10-01T06:15:34.352Z,10.30
2022-10-01T06:18:09.384Z,10.30
2022-10-01T06:20:36.566Z,10.40
2022-10-01T06:23:09.687Z,10.40
2022-10-01T06:25:38.534Z,10.50
2022-10-01T06:28:07.086Z,10.50
2022-10-01T06:30:36.945Z,10.40
2022-10-01T06:33:09.844Z,10.40
2022-10-01T06:35:42.301Z,10.40
2022-10-01T06:38:10.294Z,10.20
2022-10-01T06:40:38.080Z,10.20
2022-10-01T06:43:08.086Z,10.20
2022-10-01T06:45:41.264Z,10.10
2022-10-01T06:48:13.446Z,10.10
2022-10-01T06:50:41.537Z,10.10
2022-10-01T06:53:08.520Z,10.10
2022-10-01T06:55:37.334Z,10.20
2022-10-01T06:58:07.920Z,10.10
2022-10-01T07:00:36.955Z,10.10
2022-10-01T07:03:11.527Z,10.20
2022-10-01T07:05:40.095Z,10.30
2022-10-01T07:08:11.207Z,10.40
2022-10-01T07:10:38.617Z,10.50
2022-10-01T07:13:09.502Z,10.50
2022-10-01T07:15:40.189Z,10.50
2022-10-01T07:18:09.763Z,10.60
2022-10-01T07:20:39.963Z,10.70
2022-10-01T07:23:10.461Z,10.70
2022-10-01T07:25:39.292Z,10.70
2022-10-01T07:28:08.419Z,10.80
2022-10-01T07:30:35.810Z,10.80
2022-10-01T07:33:03.095Z,10.80
2022-10-01T07:35:30.437Z,10.90
2022-10-01T07:37:57.624Z,10.80
2022-10-01T07:40:24.819Z,10.80
2022-10-01T07:42:56.487Z,10.90
2022-10-01T07:45:26.800Z,10.90
2022-10-01T07:47:57.963Z,10.90
2022-10-01T07:50:26.535Z,10.90
2022-10-01T07:52:56.246Z,11.00
2022-10-01T07:55:27.186Z,11.00
2022-10-01T07:57:55.571Z,11.00
2022-10-01T08:00:26.172Z,11.00
2022-10-01T08:02:56.320Z,11.00
2022-10-01T08:05:29.479Z,11.00
2022-10-01T08:08:01.249Z,11.20
2022-10-01T08:10:29.742Z,11.20
2022-10-01T08:13:01.625Z,11.30
2022-10-01T08:15:32.235Z,11.30
2022-10-01T08:18:03.308Z,11.40
2022-10-01T08:20:30.892Z,11.40
2022-10-01T08:23:12.210Z,11.50
2022-10-01T08:25:39.937Z,11.60
2022-10-01T08:28:08.573Z,11.60
2022-10-01T08:30:39.453Z,11.60
2022-10-01T08:33:07.458Z,11.60
2022-10-01T08:35:34.535Z,11.50
2022-10-01T08:38:03.432Z,11.60
2022-10-01T08:40:36.941Z,11.60
2022-10-01T08:43:07.660Z,11.70
2022-10-01T08:45:59.961Z,11.70
2022-10-01T08:48:58.756Z,11.80
2022-10-01T08:51:39.962Z,11.90
2022-10-01T08:54:32.577Z,12.00
2022-10-01T08:57:02.443Z,11.90
2022-10-01T08:59:38.206Z,12.00
2022-10-01T09:02:18.695Z,12.00
2022-10-01T09:04:47.212Z,11.90
2022-10-01T09:07:38.984Z,11.90
2022-10-01T09:10:25.112Z,11.90
2022-10-01T09:13:19.927Z,11.90
2022-10-01T09:16:12.465Z,11.80
2022-10-01T09:19:06.619Z,11.80
2022-10-01T09:21:57.995Z,11.70
2022-10-01T09:24:31.653Z,11.80
2022-10-01T09:26:59.070Z,11.80
2022-10-01T09:29:39.249Z,11.80
2022-10-01T09:32:06.725Z,11.80
2022-10-01T09:34:40.217Z,11.90
2022-10-01T09:37:38.167Z,11.80
2022-10-01T09:40:27.866Z,11.90
2022-10-01T09:42:55.100Z,11.80
2022-10-01T09:45:24.604Z,11.80
2022-10-01T09:47:55.668Z,11.80
2022-10-01T09:50:40.083Z,11.80
2022-10-01T09:53:16.725Z,11.80
2022-10-01T09:55:48.130Z,11.80
2022-10-01T09:58:21.612Z,11.80
2022-10-01T10:00:52.546Z,11.80
2022-10-01T10:03:30.455Z,11.90
2022-10-01T10:06:00.209Z,12.00
2022-10-01T10:08:38.808Z,12.00
2022-10-01T10:11:09.852Z,12.00
2022-10-01T10:13:42.401Z,12.00
2022-10-01T10:16:26.914Z,12.00
2022-10-01T10:19:03.640Z,12.00
2022-10-01T10:21:35.476Z,12.00
2022-10-01T10:24:21.170Z,12.10
2022-10-01T10:26:58.290Z,12.00
2022-10-01T10:29:31.222Z,12.10
2022-10-01T10:32:00.217Z,12.00
2022-10-01T10:34:36.380Z,11.90
2022-10-01T10:37:11.306Z,11.90
2022-10-01T10:39:41.033Z,11.90
2022-10-01T10:42:08.588Z,12.00
2022-10-01T10:44:43.521Z,12.10
2022-10-01T10:47:16.843Z,12.20
2022-10-01T10:49:56.963Z,12.20
2022-10-01T10:52:30.065Z,12.10
2022-10-01T10:54:59.597Z,12.20
2022-10-01T10:57:34.803Z,12.30
2022-10-01T11:00:18.369Z,12.30
2022-10-01T11:03:00.940Z,12.40
2022-10-01T11:05:32.105Z,12.50
2022-10-01T11:08:04.470Z,12.40
2022-10-01T11:10:57.598Z,12.50
2022-10-01T11:13:39.496Z,12.50
2022-10-01T11:16:07.068Z,12.50
2022-10-01T11:18:34.254Z,12.60
2022-10-01T11:21:22.631Z,12.40
2022-10-01T11:24:14.540Z,12.40
2022-10-01T11:26:59.018Z,12.30
2022-10-01T11:29:38.027Z,12.30
2022-10-01T11:32:29.493Z,12.50
2022-10-01T11:35:16.990Z,12.50
2022-10-01T11:38:25.835Z,12.40
2022-10-01T11:41:23.407Z,12.50
2022-10-01T11:43:58.501Z,12.50
2022-10-01T11:46:38.687Z,12.50
2022-10-01T11:49:09.047Z,12.50
2022-10-01T11:51:43.723Z,12.50
2022-10-01T11:54:17.915Z,12.40
2022-10-01T11:57:10.937Z,12.30
2022-10-01T11:59:50.829Z,12.30
2022-10-01T12:02:31.863Z,12.30
2022-10-01T12:05:23.265Z,12.20
2022-10-01T12:08:22.206Z,12.30
2022-10-01T12:11:27.055Z,12.30
2022-10-01T12:14:09.185Z,12.20
2022-10-01T12:16:43.350Z,12.30
2022-10-01T12:19:17.603Z,12.30
2022-10-01T12:21:55.473Z,12.30
2022-10-01T12:24:40.551Z,12.50
2022-10-01T12:27:39.345Z,12.40
2022-10-01T12:30:12.137Z,12.40
2022-10-01T12:32:57.767Z,12.30
2022-10-01T12:35:49.138Z,12.40
2022-10-01T12:39:02.497Z,12.40
2022-10-01T12:41:51.027Z,12.40
2022-10-01T12:44:49.377Z,12.40
2022-10-01T12:47:38.069Z,12.40
2022-10-01T12:50:21.123Z,12.40
2022-10-01T12:52:55.555Z,12.40
2022-10-01T12:55:46.473Z,12.40
2022-10-01T12:59:06.580Z,12.50
2022-10-01T13:01:53.210Z,12.60
2022-10-01T13:04:23.196Z,12.50
2022-10-01T13:07:09.172Z,12.50
2022-10-01T13:10:04.459Z,12.60
2022-10-01T13:12:43.395Z,12.40
2022-10-01T13:15:49.981Z,12.50
2022-10-01T13:18:44.426Z,12.50
2022-10-01T13:21:28.680Z,12.40
2022-10-01T13:24:17.657Z,12.40
2022-10-01T13:27:05.101Z,12.80
2022-10-01T13:29:55.407Z,12.60
2022-10-01T13:32:29.816Z,12.60
2022-10-01T13:34:59.079Z,12.50
2022-10-01T13:37:35.073Z,12.50
2022-10-01T13:40:03.222Z,12.60
2022-10-01T13:42:31.823Z,12.60
2022-10-01T13:45:21.139Z,12.50
2022-10-01T13:47:48.637Z,12.50
2022-10-01T13:50:24.806Z,12.80
2022-10-01T13:53:03.908Z,13.00
2022-10-01T13:55:32.358Z,13.40
2022-10-01T13:58:08.014Z,13.60
2022-10-01T14:00:35.240Z,13.70
2022-10-01T14:03:27.321Z,13.40
2022-10-01T14:05:59.062Z,13.20
2022-10-01T14:08:40.885Z,13.00
2022-10-01T14:11:29.316Z,12.90
2022-10-01T14:14:20.959Z,12.70
2022-10-01T14:16:48.440Z,12.60
2022-10-01T14:19:24.327Z,12.60
2022-10-01T14:22:15.842Z,12.50
2022-10-01T14:24:52.511Z,12.50
2022-10-01T14:27:33.446Z,12.60
2022-10-01T14:30:07.296Z,12.60
2022-10-01T14:33:12.427Z,12.50
2022-10-01T14:35:45.595Z,12.60
2022-10-01T14:38:16.082Z,12.50
2022-10-01T14:40:48.443Z,12.50
2022-10-01T14:43:21.969Z,12.50
2022-10-01T14:45:59.304Z,12.50
2022-10-01T14:48:31.719Z,12.70
2022-10-01T14:51:01.886Z,12.50
2022-10-01T14:53:32.209Z,12.40
2022-10-01T14:56:09.929Z,12.30
2022-10-01T14:58:43.805Z,12.30
2022-10-01T15:01:22.336Z,12.30
2022-10-01T15:03:51.085Z,12.20
2022-10-01T15:06:23.730Z,12.20
2022-10-01T15:08:53.361Z,12.20
2022-10-01T15:11:26.863Z,12.10
2022-10-01T15:14:01.404Z,12.10
2022-10-01T15:16:29.840Z,12.10
2022-10-01T15:19:00.522Z,12.00
2022-10-01T15:21:34.520Z,12.00
2022-10-01T15:24:04.431Z,11.80
2022-10-01T15:26:35.465Z,11.80
2022-10-01T15:29:12.309Z,11.80
2022-10-01T15:31:43.976Z,11.70
2022-10-01T15:34:14.040Z,11.70
2022-10-01T15:36:42.365Z,11.60
2022-10-01T15:39:30.774Z,11.60
2022-10-01T15:41:59.090Z,11.60
2022-10-01T15:44:38.279Z,11.40
2022-10-01T15:47:28.404Z,11.40
2022-10-01T15:50:10.477Z,11.40
2022-10-01T15:52:51.687Z,11.30
2022-10-01T15:55:24.236Z,11.30
2022-10-01T15:58:13.000Z,11.20
2022-10-01T16:00:58.381Z,11.20
2022-10-01T16:03:32.002Z,11.10
2022-10-01T16:06:02.087Z,11.10
2022-10-01T16:08:39.889Z,11.00
2022-10-01T16:11:16.206Z,11.00
2022-10-01T16:13:50.757Z,11.00
2022-10-01T16:16:28.086Z,11.00
2022-10-01T16:19:18.232Z,11.00
2022-10-01T16:22:11.371Z,10.90
2022-10-01T16:24:50.726Z,10.90
2022-10-01T16:27:20.566Z,10.80
2022-10-01T16:30:20.577Z,10.80
2022-10-01T16:32:47.863Z,10.80
2022-10-01T16:35:19.488Z,10.80
2022-10-01T16:37:48.549Z,10.80
2022-10-01T16:40:16.610Z,10.70
2022-10-01T16:42:45.837Z,10.70
2022-10-01T16:45:22.754Z,10.80
2022-10-01T16:47:50.259Z,10.80
2022-10-01T16:50:19.689Z,10.80
2022-10-01T16:52:46.887Z,10.70
2022-10-01T16:55:24.609Z,10.70
2022-10-01T16:57:54.637Z,10.80
2022-10-01T17:00:27.023Z,10.70
2022-10-01T17:02:56.090Z,10.70
2022-10-01T17:05:29.413Z,10.60
2022-10-01T17:08:05.180Z,10.60
2022-10-01T17:10:36.708Z,10.60
2022-10-01T17:13:04.055Z,10.50
2022-10-01T17:15:32.223Z,10.50
2022-10-01T17:18:02.213Z,10.40
2022-10-01T17:20:32.887Z,10.40
2022-10-01T17:23:00.404Z,10.40
2022-10-01T17:25:32.400Z,10.40
2022-10-01T17:28:01.741Z,10.40
2022-10-01T17:30:30.102Z,10.40
2022-10-01T17:33:00.194Z,10.40
2022-10-01T17:35:28.983Z,10.40
2022-10-01T17:37:56.550Z,10.30
2022-10-01T17:40:23.692Z,10.30
2022-10-01T17:42:50.948Z,10.20
2022-10-01T17:45:18.106Z,10.20
2022-10-01T17:47:47.134Z,10.20
2022-10-01T17:50:15.350Z,10.20
2022-10-01T17:52:43.238Z,10.20
2022-10-01T17:55:12.360Z,10.20
2022-10-01T17:57:39.756Z,10.10
2022-10-01T18:00:07.666Z,10.10
2022-10-01T18:02:41.990Z,10.10
2022-10-01T18:05:12.543Z,10.10
2022-10-01T18:07:40.740Z,10.10
2022-10-01T18:10:11.200Z,10.10
2022-10-01T18:12:38.379Z,10.10
2022-10-01T18:15:06.360Z,10.10
2022-10-01T18:17:43.389Z,10.10
2022-10-01T18:20:19.023Z,10.10
2022-10-01T18:22:49.646Z,10.00
2022-10-01T18:25:19.516Z,10.10
2022-10-01T18:27:51.320Z,10.00
2022-10-01T18:30:18.784Z,10.00
2022-10-01T18:32:57.100Z,10.00
2022-10-01T18:35:38.375Z,10.00
2022-10-01T18:38:28.665Z,10.00
2022-10-01T18:41:01.802Z,10.00
2022-10-01T18:43:32.832Z,10.00
2022-10-01T18:46:38.675Z,9.90
2022-10-01T18:49:41.122Z,9.80
2022-10-01T18:52:38.358Z,9.90
2022-10-01T18:55:27.471Z,9.80
2022-10-01T18:58:30.176Z,9.80
2022-10-01T19:01:05.705Z,9.90
2022-10-01T19:03:35.598Z,9.80
2022-10-01T19:06:05.600Z,9.80
2022-10-01T19:09:00.852Z,9.80
2022-10-01T19:11:43.679Z,9.80
2022-10-01T19:14:16.973Z,9.70
2022-10-01T19:16:46.576Z,9.80
2022-10-01T19:19:46.992Z,9.80
2022-10-01T19:22:48.689Z,9.80
2022-10-01T19:25:20.951Z,9.70
2022-10-01T19:27:54.263Z,9.70
2022-10-01T19:30:21.374Z,9.70
2022-10-01T19:33:02.019Z,9.70
2022-10-01T19:35:39.245Z,9.70
2022-10-01T19:38:07.451Z,9.70
2022-10-01T19:41:12.896Z,9.70
2022-10-01T19:43:42.421Z,9.80
2022-10-01T19:46:09.346Z,9.80
2022-10-01T19:48:48.941Z,9.80
2022-10-01T19:51:21.277Z,9.80
2022-10-01T19:53:56.568Z,9.70
2022-10-01T19:56:28.329Z,9.80
2022-10-01T19:58:56.399Z,9.70
2022-10-01T20:01:28.231Z,9.70
2022-10-01T20:04:02.322Z,9.80
2022-10-01T20:06:39.149Z,9.60
2022-10-01T20:09:17.854Z,9.60
2022-10-01T20:11:53.038Z,9.70
2022-10-01T20:14:48.227Z,9.70
2022-10-01T20:17:49.228Z,9.70
2022-10-01T20:20:30.904Z,9.60
2022-10-01T20:23:19.497Z,9.60
2022-10-01T20:25:52.282Z,9.50
2022-10-01T20:28:32.166Z,9.60
2022-10-01T20:31:11.302Z,9.50
2022-10-01T20:33:49.203Z,9.50
2022-10-01T20:36:23.849Z,9.40
2022-10-01T20:39:04.653Z,9.30
2022-10-01T20:41:47.065Z,9.30
2022-10-01T20:44:26.062Z,9.20
2022-10-01T20:46:59.632Z,9.30
2022-10-01T20:49:55.029Z,9.20
2022-10-01T20:52:34.619Z,9.20
2022-10-01T20:55:12.396Z,9.20
2022-10-01T20:57:50.545Z,9.30
2022-10-01T21:00:28.238Z,9.20
2022-10-01T21:03:00.975Z,9.20
2022-10-01T21:05:39.366Z,9.20
2022-10-01T21:08:40.977Z,9.20
2022-10-01T21:11:23.446Z,9.20
2022-10-01T21:14:05.529Z,9.20
2022-10-01T21:16:38.271Z,9.10
2022-10-01T21:19:25.573Z,9.10
2022-10-01T21:22:07.662Z,9.20
2022-10-01T21:25:02.655Z,9.20
2022-10-01T21:27:58.025Z,9.10
2022-10-01T21:30:27.755Z,9.10
2022-10-01T21:33:11.868Z,9.10
2022-10-01T21:35:57.239Z,9.00
2022-10-01T21:39:05.254Z,9.00
2022-10-01T21:41:53.747Z,9.00
2022-10-01T21:44:33.526Z,9.00
2022-10-01T21:47:12.686Z,9.00
2022-10-01T21:49:45.907Z,9.00
2022-10-01T21:52:46.599Z,9.00
2022-10-01T21:55:25.610Z,9.00
2022-10-01T21:58:01.802Z,8.90
2022-10-01T22:00:30.789Z,8.90
2022-10-01T22:03:07.405Z,8.90
2022-10-01T22:06:03.289Z,8.80
2022-10-01T22:08:51.467Z,8.90
2022-10-01T22:11:22.917Z,8.90
2022-10-01T22:14:01.542Z,8.90
2022-10-01T22:16:51.520Z,8.80
2022-10-01T22:19:50.409Z,8.80
2022-10-01T22:22:25.756Z,8.80
2022-10-01T22:24:54.040Z,8.70
2022-10-01T22:27:27.898Z,8.70
2022-10-01T22:30:12.167Z,8.70
2022-10-01T22:33:05.316Z,8.70
2022-10-01T22:35:56.549Z,8.70
2022-10-01T22:38:42.630Z,8.70
2022-10-01T22:41:28.116Z,8.70
2022-10-01T22:43:55.351Z,8.60
2022-10-01T22:46:40.967Z,8.70
2022-10-01T22:49:25.052Z,8.70
2022-10-01T22:52:14.071Z,8.70
2022-10-01T22:54:53.408Z,8.70
2022-10-01T22:57:41.520Z,8.60
2022-10-01T23:00:12.492Z,8.60
2022-10-01T23:02:55.367Z,8.60
2022-10-01T23:05:41.038Z,8.60
2022-10-01T23:08:45.706Z,8.60
2022-10-01T23:11:24.808Z,8.70
2022-10-01T23:14:19.915Z,8.70
2022-10-01T23:16:58.642Z,8.70
2022-10-01T23:20:01.980Z,8.70
2022-10-01T23:22:35.244Z,8.70
2022-10-01T23:25:18.242Z,8.80
2022-10-01T23:28:25.950Z,8.70
2022-10-01T23:30:56.193Z,8.70
2022-10-01T23:33:45.249Z,8.80
2022-10-01T23:36:27.085Z,8.70
2022-10-01T23:39:17.241Z,8.80
2022-10-01T23:41:50.140Z,8.80
2022-10-01T23:44:41.714Z,8.80
2022-10-01T23:47:19.675Z,8.80
2022-10-01T23:49:56.078Z,8.80
2022-10-01T23:52:37.993Z,8.90
2022-10-01T23:55:46.536Z,8.90
2022-10-01T23:58:15.913Z,8.90
